Eviapetrol II — SY6858 — position and weather

sailwx.info

Track history (hours):
 
Tides and Currents Weather Stations Pressure Air Temp Water Temp Dewpoint Dewpoint Depression Visibility Wind Speed Wind Dir Waves Ship Positions

Eviapetrol II

Last reported at 2017-Jun-25 22:01 UTC. Time now 2017-Jun-26 18:58 UTC.
Position N 37°55' E 025°32'.

Length 78 m; draft 3.6 m.

Type: Tanker. MMSI: 240493000.

Date/timePositionNaut miles runAvg speedWind from/ knotsBaromVisibWave heightAir tempDewpointWater temp
2017-Jun-25 22:01N 37°55' E 025°32'011.9
2017-Jun-25 22:00N 37°55' E 025°32'5 9.7
2017-Jun-25 21:30N 37°52' E 025°26'5 9.8
2017-Jun-25 20:57N 37°50' E 025°20'410.0
2017-Jun-25 20:30N 37°48' E 025°15'22 9.2
2017-Jun-25 18:06N 37°41' E 024°49'46 9.1
2017-Jun-25 13:03N 37°39' E 023°51'0 9.6
2017-Jun-25 13:00N 37°39' E 023°50'5 9.6
2017-Jun-25 12:30N 37°40' E 023°44'4 9.0
2017-Jun-25 12:00N 37°43' E 023°41'5 9.9
2017-Jun-25 11:30N 37°47' E 023°38'5 9.8
2017-Jun-25 11:00N 37°52' E 023°36'5 9.5
2017-Jun-25 10:31N 37°57' E 023°35'4 8.5
2017-Jun-25 10:00N 38°01' E 023°33'2 3.0
2017-Jun-25 09:30N 38°02' E 023°32'0 0.1
2017-Jun-25 09:00N 38°02' E 023°32'0 0.0
2017-Jun-25 08:30N 38°02' E 023°32'0 0.0
2017-Jun-25 08:00N 38°02' E 023°32'0 0.0
2017-Jun-25 07:25N 38°02' E 023°32'0 0.0
2017-Jun-25 06:54N 38°02' E 023°32'0 0.0
2017-Jun-25 05:28N 38°02' E 023°32'0 0.0
2017-Jun-25 05:00N 38°02' E 023°32'0 0.0
2017-Jun-25 04:15N 38°02' E 023°32'0 0.1
2017-Jun-25 04:00N 38°02' E 023°32'0 0.2
2017-Jun-25 03:30N 38°02' E 023°32'3 4.1
2017-Jun-25 02:51N 38°02' E 023°36'0 0.1
2017-Jun-25 02:27N 38°02' E 023°36'0 0.0
2017-Jun-25 01:57N 38°02' E 023°36'0 0.0
2017-Jun-25 01:30N 38°02' E 023°36'0 0.0
2017-Jun-25 00:57N 38°02' E 023°36'0 0.0
2017-Jun-24 23:39N 38°02' E 023°36'0 0.0
2017-Jun-24 23:27N 38°02' E 023°36'0 0.0
2017-Jun-24 22:57N 38°02' E 023°36'0 0.0
2017-Jun-24 22:27N 38°02' E 023°36'0 0.0
2017-Jun-24 21:51N 38°02' E 023°36'0 0.0
2017-Jun-24 20:36N 38°02' E 023°36'0 0.0
2017-Jun-24 20:15N 38°02' E 023°36'0 0.0
2017-Jun-24 18:09N 38°02' E 023°36'0 0.0
2017-Jun-24 17:45N 38°02' E 023°36'0 0.0
2017-Jun-24 17:21N 38°02' E 023°36'0 0.8
2017-Jun-24 17:00N 38°01' E 023°35'4 7.6
2017-Jun-24 16:30N 38°02' E 023°31'0 0.8
2017-Jun-24 15:56N 38°02' E 023°30'0 0.0
2017-Jun-24 14:49N 38°02' E 023°30'0 0.0
2017-Jun-24 13:56N 38°02' E 023°30'0 0.0
2017-Jun-24 13:14N 38°02' E 023°30'0 0.0
2017-Jun-24 13:01N 38°02' E 023°30'0 0.0
2017-Jun-24 12:29N 38°02' E 023°30'0 0.0
2017-Jun-24 11:48N 38°02' E 023°30'0 0.0
2017-Jun-24 11:25N 38°02' E 023°30'0 0.0
2017-Jun-24 10:59N 38°02' E 023°30'0 0.0
2017-Jun-24 10:30N 38°02' E 023°30'0 0.0
2017-Jun-24 10:00N 38°02' E 023°30'0 0.0
2017-Jun-24 09:30N 38°02' E 023°30'0 0.0
2017-Jun-24 08:58N 38°02' E 023°30'0 0.0
2017-Jun-24 08:23N 38°02' E 023°30'1 2.1
2017-Jun-24 08:00N 38°02' E 023°31'4 7.3
2017-Jun-24 07:30N 37°58' E 023°33'4 7.6
2017-Jun-24 07:00N 37°56' E 023°36'1 2.8
2017-Jun-24 06:30N 37°54' E 023°37'5 9.6
2017-Jun-24 06:00N 37°50' E 023°40'510.0
2017-Jun-24 05:30N 37°46' E 023°43'510.0
2017-Jun-24 05:00N 37°41' E 023°46'510.0
2017-Jun-24 04:30N 37°36' E 023°47'510.4
2017-Jun-24 04:00N 37°31' E 023°47'510.3
2017-Jun-24 03:30N 37°26' E 023°48'510.1
2017-Jun-24 03:00N 37°21' E 023°48'9110.4
2017-Jun-23 18:14N 35°50' E 024°01'210.1
2017-Jun-23 18:00N 35°48' E 024°01'510.2
2017-Jun-23 17:30N 35°43' E 024°02'510.1
2017-Jun-23 17:00N 35°38' E 024°03'5 9.4
2017-Jun-23 16:30N 35°33' E 024°03'87 4.2
2017-Jun-22 19:52N 36°58' E 023°42'410.7
2017-Jun-22 19:30N 37°02' E 023°41'510.6
2017-Jun-22 19:00N 37°07' E 023°40'510.6
2017-Jun-22 18:30N 37°12' E 023°39'510.5
2017-Jun-22 18:00N 37°18' E 023°37'510.5
2017-Jun-22 17:30N 37°23' E 023°36'510.4
2017-Jun-22 17:00N 37°28' E 023°34'510.4
2017-Jun-22 16:30N 37°33' E 023°31'510.2
2017-Jun-22 16:00N 37°36' E 023°27'5 9.9
2017-Jun-22 15:30N 37°39' E 023°22'4 8.4
2017-Jun-22 15:00N 37°42' E 023°18'1010.4
2017-Jun-22 14:00N 37°52' E 023°21'510.5
2017-Jun-22 13:30N 37°57' E 023°24'4 7.7
2017-Jun-22 13:00N 37°60' E 023°26'5 9.5
2017-Jun-22 12:30N 38°01' E 023°32'0 0.5
2017-Jun-22 12:00N 38°01' E 023°33'1 1.2
2017-Jun-22 11:30N 38°01' E 023°33'2 0.4
2017-Jun-22 06:20N 38°02' E 023°36'0 0.0
2017-Jun-22 05:53N 38°02' E 023°36'1 1.4
2017-Jun-22 05:30N 38°02' E 023°35'2 4.8
2017-Jun-22 05:00N 38°02' E 023°32'0 0.1
2017-Jun-22 04:30N 38°02' E 023°32'0 0.0
2017-Jun-22 04:00N 38°02' E 023°32'0 0.0
2017-Jun-22 03:30N 38°02' E 023°32'0 0.1
2017-Jun-22 03:00N 38°02' E 023°32'0 0.0
2017-Jun-22 02:28N 38°02' E 023°32'0 0.1
2017-Jun-22 02:00N 38°02' E 023°32'0 0.0
2017-Jun-22 01:30N 38°02' E 023°32'0 0.0
2017-Jun-22 01:00N 38°02' E 023°32'0 0.0
2017-Jun-22 00:30N 38°02' E 023°32'0 0.0
2017-Jun-22 00:00N 38°02' E 023°32'0 0.0
2017-Jun-21 23:30N 38°02' E 023°32'0 0.0
2017-Jun-21 23:00N 38°02' E 023°32'0 0.0
2017-Jun-21 22:30N 38°02' E 023°32'0 0.1
2017-Jun-21 22:00N 38°02' E 023°32'0 0.1
2017-Jun-21 21:22N 38°02' E 023°32'1 1.9
2017-Jun-21 21:00N 38°02' E 023°31'510.7
2017-Jun-21 20:30N 37°59' E 023°25'4 7.5
2017-Jun-21 20:01N 37°57' E 023°22'611.1
2017-Jun-21 19:30N 37°55' E 023°15'611.0
2017-Jun-21 19:00N 37°55' E 023°08'6 0.1
2017-Jun-19 15:33N 37°55' E 023°01'2 7.6
2017-Jun-19 15:18N 37°55' E 023°03'310.4
2017-Jun-19 14:59N 37°54' E 023°07'510.5
2017-Jun-19 14:30N 37°55' E 023°14'10 9.9
2017-Jun-19 13:30N 37°58' E 023°26'4 7.8
2017-Jun-19 13:00N 38°01' E 023°29'5 9.2
2017-Jun-19 12:30N 38°02' E 023°35'0 0.4
2017-Jun-19 11:35N 38°02' E 023°36'0 0.0
2017-Jun-19 11:17N 38°02' E 023°36'0 0.0
2017-Jun-19 10:47N 38°02' E 023°36'0 0.0
2017-Jun-19 07:35N 38°02' E 023°36'0 0.6
2017-Jun-19 07:17N 38°02' E 023°36'1 4.3
2017-Jun-19 07:00N 38°02' E 023°34'2 3.1
2017-Jun-19 06:30N 38°02' E 023°32'0 0.1
2017-Jun-19 06:00N 38°02' E 023°32'0 0.0
2017-Jun-19 05:30N 38°02' E 023°32'0 0.0
2017-Jun-19 05:00N 38°02' E 023°32'0 0.0
2017-Jun-19 04:30N 38°02' E 023°32'0 0.0
2017-Jun-19 04:00N 38°02' E 023°32'0 0.1
2017-Jun-19 03:30N 38°02' E 023°32'0 0.0
2017-Jun-19 03:00N 38°02' E 023°32'0 0.0
2017-Jun-19 02:30N 38°02' E 023°32'0 0.0
2017-Jun-19 02:00N 38°02' E 023°32'0 0.0
2017-Jun-19 01:30N 38°02' E 023°32'0 0.0
2017-Jun-19 01:00N 38°02' E 023°32'0 0.0
2017-Jun-19 00:30N 38°02' E 023°32'0 0.0
2017-Jun-19 00:00N 38°02' E 023°32'0 0.0
2017-Jun-18 23:30N 38°02' E 023°32'0 0.0
2017-Jun-18 23:00N 38°02' E 023°32'0 0.0
2017-Jun-18 22:30N 38°02' E 023°32'0 0.0
2017-Jun-18 22:00N 38°02' E 023°32'0 0.0
2017-Jun-18 21:30N 38°02' E 023°32'0 0.0
2017-Jun-18 21:00N 38°02' E 023°32'0 0.0
2017-Jun-18 20:30N 38°02' E 023°32'0 0.0
2017-Jun-18 20:00N 38°02' E 023°32'0 0.1
2017-Jun-18 19:30N 38°02' E 023°32'0 0.0
2017-Jun-18 19:00N 38°02' E 023°32'0 0.0
2017-Jun-18 18:30N 38°02' E 023°32'0 0.0
2017-Jun-18 18:00N 38°02' E 023°32'0 0.0
2017-Jun-18 17:30N 38°02' E 023°32'0 0.0
2017-Jun-18 17:00N 38°02' E 023°32'0 0.0
2017-Jun-18 16:30N 38°02' E 023°32'0 0.2
2017-Jun-18 15:59N 38°02' E 023°32'0 0.0
2017-Jun-18 15:30N 38°02' E 023°32'0 0.0
2017-Jun-18 15:01N 38°02' E 023°32'0 0.0
2017-Jun-18 13:59N 38°02' E 023°32'0 0.0
2017-Jun-18 13:30N 38°02' E 023°32'0 0.0
2017-Jun-18 13:00N 38°02' E 023°32'0 0.0
2017-Jun-18 12:28N 38°02' E 023°32'0 0.1
2017-Jun-18 12:00N 38°02' E 023°32'0 0.0
2017-Jun-18 11:31N 38°02' E 023°32'0 0.0
2017-Jun-18 11:00N 38°02' E 023°32'0 0.0
2017-Jun-18 10:31N 38°02' E 023°32'0 0.0
2017-Jun-18 10:00N 38°02' E 023°32'0 0.0
2017-Jun-18 09:30N 38°02' E 023°32'0 0.0
2017-Jun-18 09:00N 38°02' E 023°32'0 0.0
2017-Jun-18 08:30N 38°02' E 023°32'0 0.0
2017-Jun-18 08:00N 38°02' E 023°32'0 0.0
2017-Jun-18 07:30N 38°02' E 023°32'0 0.0
2017-Jun-18 07:00N 38°02' E 023°32'0 0.0
2017-Jun-18 06:30N 38°02' E 023°32'0 0.0
2017-Jun-18 06:00N 38°02' E 023°32'0 0.0
2017-Jun-18 05:30N 38°02' E 023°32'1 2.0
2017-Jun-18 05:00N 38°02' E 023°31'0 0.9
2017-Jun-18 04:30N 38°02' E 023°30'0 0.0
2017-Jun-18 04:00N 38°02' E 023°30'0 0.0
2017-Jun-18 03:31N 38°02' E 023°30'0 0.0
2017-Jun-18 03:01N 38°02' E 023°30'0 0.0
2017-Jun-18 02:30N 38°02' E 023°30'0 0.0
2017-Jun-18 02:00N 38°02' E 023°30'0 0.0
2017-Jun-18 01:30N 38°02' E 023°30'0 0.0
2017-Jun-18 01:00N 38°02' E 023°30'0 0.0
2017-Jun-18 00:30N 38°02' E 023°30'0 0.0
2017-Jun-18 00:00N 38°02' E 023°30'0 0.0
2017-Jun-17 23:30N 38°02' E 023°30'0 0.0
2017-Jun-17 23:00N 38°02' E 023°30'0 0.0
2017-Jun-17 22:30N 38°02' E 023°30'0 0.0
2017-Jun-17 22:00N 38°02' E 023°30'0 0.0
2017-Jun-17 21:30N 38°02' E 023°30'0 0.0
2017-Jun-17 21:00N 38°02' E 023°30'0 0.0
2017-Jun-17 20:30N 38°02' E 023°30'1 1.2
2017-Jun-17 20:00N 38°02' E 023°31'1 1.9
2017-Jun-17 19:30N 38°02' E 023°32'0 0.0
2017-Jun-17 19:00N 38°02' E 023°32'0 0.0
2017-Jun-17 18:30N 38°02' E 023°32'0 0.0
2017-Jun-17 18:00N 38°02' E 023°32'0 0.1
2017-Jun-17 17:30N 38°02' E 023°32'0 0.0
2017-Jun-17 16:59N 38°02' E 023°32'0 0.1
2017-Jun-17 16:30N 38°02' E 023°32'0 0.2
2017-Jun-17 16:00N 38°02' E 023°32'4 8.5
2017-Jun-17 15:31N 38°00' E 023°27'4 7.4
2017-Jun-17 15:00N 37°57' E 023°24'510.8
2017-Jun-17 14:30N 37°56' E 023°17'1010.5
2017-Jun-17 13:30N 37°54' E 023°04'  
Track history (hours):
 
Tides and Currents Weather Stations Pressure Air Temp Water Temp Dewpoint Dewpoint Depression Visibility Wind Speed Wind Dir Waves Ship Positions

Eviapetrol II

Last reported at 2017-Jun-25 22:01 UTC. Time now 2017-Jun-26 18:58 UTC.
Position N 37°55' E 025°32'.

Length 78 m; draft 3.6 m.

Type: Tanker. MMSI: 240493000.

Date/timePositionNaut miles runAvg speedWind from/ knotsBaromVisibWave heightAir tempDewpointWater temp
2017-Jun-25 22:01N 37°55' E 025°32'011.9
2017-Jun-25 22:00N 37°55' E 025°32'5 9.7
2017-Jun-25 21:30N 37°52' E 025°26'5 9.8
2017-Jun-25 20:57N 37°50' E 025°20'410.0
2017-Jun-25 20:30N 37°48' E 025°15'22 9.2
2017-Jun-25 18:06N 37°41' E 024°49'46 9.1
2017-Jun-25 13:03N 37°39' E 023°51'0 9.6
2017-Jun-25 13:00N 37°39' E 023°50'5 9.6
2017-Jun-25 12:30N 37°40' E 023°44'4 9.0
2017-Jun-25 12:00N 37°43' E 023°41'5 9.9
2017-Jun-25 11:30N 37°47' E 023°38'5 9.8
2017-Jun-25 11:00N 37°52' E 023°36'5 9.5
2017-Jun-25 10:31N 37°57' E 023°35'4 8.5
2017-Jun-25 10:00N 38°01' E 023°33'2 3.0
2017-Jun-25 09:30N 38°02' E 023°32'0 0.1
2017-Jun-25 09:00N 38°02' E 023°32'0 0.0
2017-Jun-25 08:30N 38°02' E 023°32'0 0.0
2017-Jun-25 08:00N 38°02' E 023°32'0 0.0
2017-Jun-25 07:25N 38°02' E 023°32'0 0.0
2017-Jun-25 06:54N 38°02' E 023°32'0 0.0
2017-Jun-25 05:28N 38°02' E 023°32'0 0.0
2017-Jun-25 05:00N 38°02' E 023°32'0 0.0
2017-Jun-25 04:15N 38°02' E 023°32'0 0.1
2017-Jun-25 04:00N 38°02' E 023°32'0 0.2
2017-Jun-25 03:30N 38°02' E 023°32'3 4.1
2017-Jun-25 02:51N 38°02' E 023°36'0 0.1
2017-Jun-25 02:27N 38°02' E 023°36'0 0.0
2017-Jun-25 01:57N 38°02' E 023°36'0 0.0
2017-Jun-25 01:30N 38°02' E 023°36'0 0.0
2017-Jun-25 00:57N 38°02' E 023°36'0 0.0
2017-Jun-24 23:39N 38°02' E 023°36'0 0.0
2017-Jun-24 23:27N 38°02' E 023°36'0 0.0
2017-Jun-24 22:57N 38°02' E 023°36'0 0.0
2017-Jun-24 22:27N 38°02' E 023°36'0 0.0
2017-Jun-24 21:51N 38°02' E 023°36'0 0.0
2017-Jun-24 20:36N 38°02' E 023°36'0 0.0
2017-Jun-24 20:15N 38°02' E 023°36'0 0.0
2017-Jun-24 18:09N 38°02' E 023°36'0 0.0
2017-Jun-24 17:45N 38°02' E 023°36'0 0.0
2017-Jun-24 17:21N 38°02' E 023°36'0 0.8
2017-Jun-24 17:00N 38°01' E 023°35'4 7.6
2017-Jun-24 16:30N 38°02' E 023°31'0 0.8
2017-Jun-24 15:56N 38°02' E 023°30'0 0.0
2017-Jun-24 14:49N 38°02' E 023°30'0 0.0
2017-Jun-24 13:56N 38°02' E 023°30'0 0.0
2017-Jun-24 13:14N 38°02' E 023°30'0 0.0
2017-Jun-24 13:01N 38°02' E 023°30'0 0.0
2017-Jun-24 12:29N 38°02' E 023°30'0 0.0
2017-Jun-24 11:48N 38°02' E 023°30'0 0.0
2017-Jun-24 11:25N 38°02' E 023°30'0 0.0
2017-Jun-24 10:59N 38°02' E 023°30'0 0.0
2017-Jun-24 10:30N 38°02' E 023°30'0 0.0
2017-Jun-24 10:00N 38°02' E 023°30'0 0.0
2017-Jun-24 09:30N 38°02' E 023°30'0 0.0
2017-Jun-24 08:58N 38°02' E 023°30'0 0.0
2017-Jun-24 08:23N 38°02' E 023°30'1 2.1
2017-Jun-24 08:00N 38°02' E 023°31'4 7.3
2017-Jun-24 07:30N 37°58' E 023°33'4 7.6
2017-Jun-24 07:00N 37°56' E 023°36'1 2.8
2017-Jun-24 06:30N 37°54' E 023°37'5 9.6
2017-Jun-24 06:00N 37°50' E 023°40'510.0
2017-Jun-24 05:30N 37°46' E 023°43'510.0
2017-Jun-24 05:00N 37°41' E 023°46'510.0
2017-Jun-24 04:30N 37°36' E 023°47'510.4
2017-Jun-24 04:00N 37°31' E 023°47'510.3
2017-Jun-24 03:30N 37°26' E 023°48'510.1
2017-Jun-24 03:00N 37°21' E 023°48'9110.4
2017-Jun-23 18:14N 35°50' E 024°01'210.1
2017-Jun-23 18:00N 35°48' E 024°01'510.2
2017-Jun-23 17:30N 35°43' E 024°02'510.1
2017-Jun-23 17:00N 35°38' E 024°03'5 9.4
2017-Jun-23 16:30N 35°33' E 024°03'87 4.2
2017-Jun-22 19:52N 36°58' E 023°42'410.7
2017-Jun-22 19:30N 37°02' E 023°41'510.6
2017-Jun-22 19:00N 37°07' E 023°40'510.6
2017-Jun-22 18:30N 37°12' E 023°39'510.5
2017-Jun-22 18:00N 37°18' E 023°37'510.5
2017-Jun-22 17:30N 37°23' E 023°36'510.4
2017-Jun-22 17:00N 37°28' E 023°34'510.4
2017-Jun-22 16:30N 37°33' E 023°31'510.2
2017-Jun-22 16:00N 37°36' E 023°27'5 9.9
2017-Jun-22 15:30N 37°39' E 023°22'4 8.4
2017-Jun-22 15:00N 37°42' E 023°18'1010.4
2017-Jun-22 14:00N 37°52' E 023°21'510.5
2017-Jun-22 13:30N 37°57' E 023°24'4 7.7
2017-Jun-22 13:00N 37°60' E 023°26'5 9.5
2017-Jun-22 12:30N 38°01' E 023°32'0 0.5
2017-Jun-22 12:00N 38°01' E 023°33'1 1.2
2017-Jun-22 11:30N 38°01' E 023°33'2 0.4
2017-Jun-22 06:20N 38°02' E 023°36'0 0.0
2017-Jun-22 05:53N 38°02' E 023°36'1 1.4
2017-Jun-22 05:30N 38°02' E 023°35'2 4.8
2017-Jun-22 05:00N 38°02' E 023°32'0 0.1
2017-Jun-22 04:30N 38°02' E 023°32'0 0.0
2017-Jun-22 04:00N 38°02' E 023°32'0 0.0
2017-Jun-22 03:30N 38°02' E 023°32'0 0.1
2017-Jun-22 03:00N 38°02' E 023°32'0 0.0
2017-Jun-22 02:28N 38°02' E 023°32'0 0.1
2017-Jun-22 02:00N 38°02' E 023°32'0 0.0
2017-Jun-22 01:30N 38°02' E 023°32'0 0.0
2017-Jun-22 01:00N 38°02' E 023°32'0 0.0
2017-Jun-22 00:30N 38°02' E 023°32'0 0.0
2017-Jun-22 00:00N 38°02' E 023°32'0 0.0
2017-Jun-21 23:30N 38°02' E 023°32'0 0.0
2017-Jun-21 23:00N 38°02' E 023°32'0 0.0
2017-Jun-21 22:30N 38°02' E 023°32'0 0.1
2017-Jun-21 22:00N 38°02' E 023°32'0 0.1
2017-Jun-21 21:22N 38°02' E 023°32'1 1.9
2017-Jun-21 21:00N 38°02' E 023°31'510.7
2017-Jun-21 20:30N 37°59' E 023°25'4 7.5
2017-Jun-21 20:01N 37°57' E 023°22'611.1
2017-Jun-21 19:30N 37°55' E 023°15'611.0
2017-Jun-21 19:00N 37°55' E 023°08'6 0.1
2017-Jun-19 15:33N 37°55' E 023°01'2 7.6
2017-Jun-19 15:18N 37°55' E 023°03'310.4
2017-Jun-19 14:59N 37°54' E 023°07'510.5
2017-Jun-19 14:30N 37°55' E 023°14'10 9.9
2017-Jun-19 13:30N 37°58' E 023°26'4 7.8
2017-Jun-19 13:00N 38°01' E 023°29'5 9.2
2017-Jun-19 12:30N 38°02' E 023°35'0 0.4
2017-Jun-19 11:35N 38°02' E 023°36'0 0.0
2017-Jun-19 11:17N 38°02' E 023°36'0 0.0
2017-Jun-19 10:47N 38°02' E 023°36'0 0.0
2017-Jun-19 07:35N 38°02' E 023°36'0 0.6
2017-Jun-19 07:17N 38°02' E 023°36'1 4.3
2017-Jun-19 07:00N 38°02' E 023°34'2 3.1
2017-Jun-19 06:30N 38°02' E 023°32'0 0.1
2017-Jun-19 06:00N 38°02' E 023°32'0 0.0
2017-Jun-19 05:30N 38°02' E 023°32'0 0.0
2017-Jun-19 05:00N 38°02' E 023°32'0 0.0
2017-Jun-19 04:30N 38°02' E 023°32'0 0.0
2017-Jun-19 04:00N 38°02' E 023°32'0 0.1
2017-Jun-19 03:30N 38°02' E 023°32'0 0.0
2017-Jun-19 03:00N 38°02' E 023°32'0 0.0
2017-Jun-19 02:30N 38°02' E 023°32'0 0.0
2017-Jun-19 02:00N 38°02' E 023°32'0 0.0
2017-Jun-19 01:30N 38°02' E 023°32'0 0.0
2017-Jun-19 01:00N 38°02' E 023°32'0 0.0
2017-Jun-19 00:30N 38°02' E 023°32'0 0.0
2017-Jun-19 00:00N 38°02' E 023°32'0 0.0
2017-Jun-18 23:30N 38°02' E 023°32'0 0.0
2017-Jun-18 23:00N 38°02' E 023°32'0 0.0
2017-Jun-18 22:30N 38°02' E 023°32'0 0.0
2017-Jun-18 22:00N 38°02' E 023°32'0 0.0
2017-Jun-18 21:30N 38°02' E 023°32'0 0.0
2017-Jun-18 21:00N 38°02' E 023°32'0 0.0
2017-Jun-18 20:30N 38°02' E 023°32'0 0.0
2017-Jun-18 20:00N 38°02' E 023°32'0 0.1
2017-Jun-18 19:30N 38°02' E 023°32'0 0.0
2017-Jun-18 19:00N 38°02' E 023°32'0 0.0
2017-Jun-18 18:30N 38°02' E 023°32'0 0.0
2017-Jun-18 18:00N 38°02' E 023°32'0 0.0
2017-Jun-18 17:30N 38°02' E 023°32'0 0.0
2017-Jun-18 17:00N 38°02' E 023°32'0 0.0
2017-Jun-18 16:30N 38°02' E 023°32'0 0.2
2017-Jun-18 15:59N 38°02' E 023°32'0 0.0
2017-Jun-18 15:30N 38°02' E 023°32'0 0.0
2017-Jun-18 15:01N 38°02' E 023°32'0 0.0
2017-Jun-18 13:59N 38°02' E 023°32'0 0.0
2017-Jun-18 13:30N 38°02' E 023°32'0 0.0
2017-Jun-18 13:00N 38°02' E 023°32'0 0.0
2017-Jun-18 12:28N 38°02' E 023°32'0 0.1
2017-Jun-18 12:00N 38°02' E 023°32'0 0.0
2017-Jun-18 11:31N 38°02' E 023°32'0 0.0
2017-Jun-18 11:00N 38°02' E 023°32'0 0.0
2017-Jun-18 10:31N 38°02' E 023°32'0 0.0
2017-Jun-18 10:00N 38°02' E 023°32'0 0.0
2017-Jun-18 09:30N 38°02' E 023°32'0 0.0
2017-Jun-18 09:00N 38°02' E 023°32'0 0.0
2017-Jun-18 08:30N 38°02' E 023°32'0 0.0
2017-Jun-18 08:00N 38°02' E 023°32'0 0.0
2017-Jun-18 07:30N 38°02' E 023°32'0 0.0
2017-Jun-18 07:00N 38°02' E 023°32'0 0.0
2017-Jun-18 06:30N 38°02' E 023°32'0 0.0
2017-Jun-18 06:00N 38°02' E 023°32'0 0.0
2017-Jun-18 05:30N 38°02' E 023°32'1 2.0
2017-Jun-18 05:00N 38°02' E 023°31'0 0.9
2017-Jun-18 04:30N 38°02' E 023°30'0 0.0
2017-Jun-18 04:00N 38°02' E 023°30'0 0.0
2017-Jun-18 03:31N 38°02' E 023°30'0 0.0
2017-Jun-18 03:01N 38°02' E 023°30'0 0.0
2017-Jun-18 02:30N 38°02' E 023°30'0 0.0
2017-Jun-18 02:00N 38°02' E 023°30'0 0.0
2017-Jun-18 01:30N 38°02' E 023°30'0 0.0
2017-Jun-18 01:00N 38°02' E 023°30'0 0.0
2017-Jun-18 00:30N 38°02' E 023°30'0 0.0
2017-Jun-18 00:00N 38°02' E 023°30'0 0.0
2017-Jun-17 23:30N 38°02' E 023°30'0 0.0
2017-Jun-17 23:00N 38°02' E 023°30'0 0.0
2017-Jun-17 22:30N 38°02' E 023°30'0 0.0
2017-Jun-17 22:00N 38°02' E 023°30'0 0.0
2017-Jun-17 21:30N 38°02' E 023°30'0 0.0
2017-Jun-17 21:00N 38°02' E 023°30'0 0.0
2017-Jun-17 20:30N 38°02' E 023°30'1 1.2
2017-Jun-17 20:00N 38°02' E 023°31'1 1.9
2017-Jun-17 19:30N 38°02' E 023°32'0 0.0
2017-Jun-17 19:00N 38°02' E 023°32'0 0.0
2017-Jun-17 18:30N 38°02' E 023°32'0 0.0
2017-Jun-17 18:00N 38°02' E 023°32'0 0.1
2017-Jun-17 17:30N 38°02' E 023°32'0 0.0
2017-Jun-17 16:59N 38°02' E 023°32'0 0.1
2017-Jun-17 16:30N 38°02' E 023°32'0 0.2
2017-Jun-17 16:00N 38°02' E 023°32'4 8.5
2017-Jun-17 15:31N 38°00' E 023°27'4 7.4
2017-Jun-17 15:00N 37°57' E 023°24'510.8
2017-Jun-17 14:30N 37°56' E 023°17'1010.5
2017-Jun-17 13:30N 37°54' E 023°04'  

Dump ship's entire track history